Time;durP1;ratioP1;P1;durP2;ratioP2;P2;SDS_P1;SDS_P2;PMS_P1;PMS_P2;Temp;Humidity;BMP_temperature;BMP_pressure;BME280_temperature;BME280_humidity;BME280_pressure;Samples;Min_cycle;Max_cycle;Signal;HPM_P1;HPM_P2
2022/10/11 00:01:52;;;;;;;;;;;;;;;9.91;77.24;99729.91;6153444;23;816;-76
2022/10/11 00:04:19;;;;;;;;;;;;;;;9.94;77.11;99732.13;6153487;23;882;-76
2022/10/11 00:06:46;;;;;;;;;;;;;;;9.89;77.36;99732.84;6127585;23;1377;-78
2022/10/11 00:09:13;;;;;;;;;;;;;;;9.90;77.21;99737.16;6152152;23;805;-78
2022/10/11 00:11:39;;;;;;;;;;;;;;;9.87;77.43;99740.31;6152728;23;841;-77
2022/10/11 00:14:06;;;;;;;;;;;;;;;9.91;77.26;99746.88;6148350;23;1944;-76
2022/10/11 00:16:32;;;;;;;;;;;;;;;9.59;77.15;99692.63;6149932;23;793;-76
2022/10/11 00:18:59;;;;;;;;;;;;;;;9.88;77.30;99741.13;6154531;23;813;-76
2022/10/11 00:21:26;;;;;;;;;;;;;;;9.86;77.16;99743.25;6152103;23;830;-76
2022/10/11 00:23:52;;;;;;;;;;;;;;;9.86;77.20;99751.31;6124710;23;987;-76
2022/10/11 00:26:19;;;;;;;;;;;;;;;9.88;77.01;99749.19;6151867;23;786;-77
2022/10/11 00:28:45;;;;;;;;;;;;;;;9.90;77.17;99745.22;6152231;23;889;-78
2022/10/11 00:31:12;;;;;;;;;;;;;;;9.88;77.01;99744.66;6126603;23;914;-75
2022/10/11 00:33:38;;;;;;;;;;;;;;;9.86;76.85;99738.69;6153359;23;1901;-79
2022/10/11 00:36:05;;;;;;;;;;;;;;;9.90;76.95;99741.72;6151938;23;805;-77
2022/10/11 00:38:32;;;;;;;;;;;;;;;9.94;76.77;99749.09;6125810;23;1274;-75
2022/10/11 00:40:58;;;;;;;;;;;;;;;9.86;77.13;99768.28;6153946;23;808;-77
2022/10/11 00:43:25;;;;;;;;;;;;;;;9.91;77.07;99770.25;6130066;23;1533;-77
2022/10/11 00:45:51;;;;;;;;;;;;;;;9.81;77.24;99770.03;6152307;23;848;-76
2022/10/11 00:48:18;;;;;;;;;;;;;;;9.74;77.30;99779.03;6152807;23;1168;-74
2022/10/11 00:50:44;;;;;;;;;;;;;;;9.81;77.17;99775.41;6152630;23;805;-75
2022/10/11 00:53:11;;;;;;;;;;;;;;;9.83;76.82;99781.38;6151952;23;1929;-76
2022/10/11 00:55:37;;;;;;;;;;;;;;;9.76;77.21;99785.00;6151829;23;841;-76
2022/10/11 00:58:04;;;;;;;;;;;;;;;9.90;76.90;99779.38;6151996;23;832;-76
2022/10/11 01:00:30;;;;;;;;;;;;;;;9.82;77.04;99790.47;6152776;23;781;-76
2022/10/11 01:02:57;;;;;;;;;;;;;;;9.86;76.90;99787.09;6154863;23;829;-76
2022/10/11 01:05:23;;;;;;;;;;;;;;;9.81;76.84;99786.97;6151327;23;789;-76
2022/10/11 01:07:50;;;;;;;;;;;;;;;9.83;76.88;99781.38;6152464;23;833;-78
2022/10/11 01:10:17;;;;;;;;;;;;;;;9.78;76.84;99790.13;6152028;23;782;-75
2022/10/11 01:12:43;;;;;;;;;;;;;;;9.83;76.92;99790.25;6152979;23;1939;-78
2022/10/11 01:15:10;;;;;;;;;;;;;;;9.74;77.06;99792.47;6151742;23;837;-75
2022/10/11 01:17:36;;;;;;;;;;;;;;;9.81;76.75;99789.66;6152348;23;1098;-77
2022/10/11 01:20:03;;;;;;;;;;;;;;;9.73;77.09;99785.44;6153955;23;805;-78
2022/10/11 01:22:29;;;;;;;;;;;;;;;9.72;77.15;99793.75;6124298;23;1245;-77
2022/10/11 01:24:56;;;;;;;;;;;;;;;9.74;76.93;99792.47;6151490;23;788;-77
2022/10/11 01:27:24;;;;;;;;;;;;;;;9.68;77.05;99787.22;6153292;23;746;-76
2022/10/11 01:29:50;;;;;;;;;;;;;;;9.72;76.93;99791.88;6126716;23;2402;-77
2022/10/11 01:32:17;;;;;;;;;;;;;;;9.71;76.96;99798.31;6149886;23;820;-76
2022/10/11 01:34:43;;;;;;;;;;;;;;;9.78;76.70;99798.19;6127214;23;1944;-78
2022/10/11 01:37:10;;;;;;;;;;;;;;;9.70;76.87;99809.28;6125701;23;1392;-76
2022/10/11 01:39:37;;;;;;;;;;;;;;;9.75;76.66;99807.53;6151531;23;773;-76
2022/10/11 01:42:03;;;;;;;;;;;;;;;9.72;76.68;99815.25;6150199;23;816;-77
2022/10/11 01:44:30;;;;;;;;;;;;;;;9.70;76.73;99812.78;6125396;23;1323;-77
2022/10/11 01:46:56;;;;;;;;;;;;;;;9.66;77.12;99817.00;6152163;23;844;-78
2022/10/11 01:49:23;;;;;;;;;;;;;;;9.66;77.06;99808.13;6126285;23;1181;-78
2022/10/11 01:51:49;;;;;;;;;;;;;;;9.67;76.94;99797.13;6125534;23;842;-77
2022/10/11 01:54:16;;;;;;;;;;;;;;;9.64;76.80;99799.47;6150595;23;1930;-77
2022/10/11 01:56:42;;;;;;;;;;;;;;;9.70;76.70;99798.53;6151110;23;972;-76
2022/10/11 01:59:09;;;;;;;;;;;;;;;9.70;76.57;99811.97;6124137;23;1256;-78
2022/10/11 02:01:35;;;;;;;;;;;;;;;9.63;76.97;99820.16;6152152;23;833;-76
2022/10/11 02:04:02;;;;;;;;;;;;;;;9.58;77.20;99809.28;6151501;23;864;-76
2022/10/11 02:06:28;;;;;;;;;;;;;;;9.62;77.01;99813.16;6154164;23;814;-77
2022/10/11 02:08:55;;;;;;;;;;;;;;;9.57;77.11;99820.28;6151667;23;801;-78
2022/10/11 02:11:21;;;;;;;;;;;;;;;9.62;76.70;99823.91;6152523;23;813;-76
2022/10/11 02:13:48;;;;;;;;;;;;;;;9.58;77.06;99824.59;6150345;23;1897;-76
2022/10/11 02:16:15;;;;;;;;;;;;;;;9.56;77.20;99832.91;6124871;23;1197;-76
2022/10/11 02:18:41;;;;;;;;;;;;;;;9.51;77.21;99838.94;6151693;23;1004;-76
2022/10/11 02:21:08;;;;;;;;;;;;;;;9.50;77.00;99833.78;6152757;23;3580;-76
2022/10/11 02:23:35;;;;;;;;;;;;;;;9.50;76.87;99844.53;6150462;23;825;-77
2022/10/11 02:26:01;;;;;;;;;;;;;;;9.49;77.14;99843.72;6153284;23;931;-77
2022/10/11 02:28:28;;;;;;;;;;;;;;;9.49;77.05;99841.03;6152823;23;985;-77
2022/10/11 02:30:54;;;;;;;;;;;;;;;9.52;76.99;99847.81;6125604;23;1619;-77
2022/10/11 02:33:21;;;;;;;;;;;;;;;9.48;77.05;99844.78;6152506;23;1897;-77
2022/10/11 02:35:47;;;;;;;;;;;;;;;9.49;77.21;99857.16;6152676;23;905;-77
2022/10/11 02:38:14;;;;;;;;;;;;;;;9.49;76.99;99857.16;6153409;23;797;-77
2022/10/11 02:40:40;;;;;;;;;;;;;;;9.50;76.65;99856.13;6153026;23;832;-77
2022/10/11 02:43:07;;;;;;;;;;;;;;;9.45;76.86;99855.19;6151967;23;839;-77
2022/10/11 02:45:33;;;;;;;;;;;;;;;9.49;76.87;99859.84;6152741;23;804;-77
2022/10/11 02:48:00;;;;;;;;;;;;;;;9.47;76.80;99856.59;6153240;23;789;-77
2022/10/11 02:50:26;;;;;;;;;;;;;;;9.47;76.71;99850.38;6126443;23;905;-77
2022/10/11 02:52:53;;;;;;;;;;;;;;;9.47;76.71;99869.19;6154801;23;840;-77
2022/10/11 02:55:19;;;;;;;;;;;;;;;9.51;76.71;99865.03;6154523;23;1948;-77
2022/10/11 02:57:46;;;;;;;;;;;;;;;9.46;76.87;99870.25;6128442;23;1271;-77
2022/10/11 03:00:12;;;;;;;;;;;;;;;9.46;76.83;99873.75;6154446;23;837;-77
2022/10/11 03:02:39;;;;;;;;;;;;;;;9.50;76.57;99874.97;6128313;23;872;-76
2022/10/11 03:05:06;;;;;;;;;;;;;;;9.45;76.63;99876.69;6154221;23;797;-77
2022/10/11 03:07:32;;;;;;;;;;;;;;;9.09;76.66;99819.31;6129280;23;1332;-76
2022/10/11 03:10:00;;;;;;;;;;;;;;;9.45;76.60;99898.19;6154531;23;1036;-77
2022/10/11 03:12:26;;;;;;;;;;;;;;;9.38;76.89;99892.06;6128753;23;836;-77
2022/10/11 03:14:53;;;;;;;;;;;;;;;9.50;76.44;99895.63;6127292;23;1906;-77
2022/10/11 03:17:19;;;;;;;;;;;;;;;9.39;76.48;99891.03;6154593;23;785;-77
2022/10/11 03:19:46;;;;;;;;;;;;;;;9.39;76.78;99901.78;6128394;23;821;-77
2022/10/11 03:22:12;;;;;;;;;;;;;;;9.36;76.60;99902.25;6153130;23;1294;-77
2022/10/11 03:24:39;;;;;;;;;;;;;;;9.34;76.77;99894.41;6155091;23;845;-76
2022/10/11 03:27:05;;;;;;;;;;;;;;;9.37;76.69;99899.31;6128188;23;1323;-75
2022/10/11 03:29:32;;;;;;;;;;;;;;;9.42;76.16;99901.34;6129042;23;1265;-77
2022/10/11 03:31:59;;;;;;;;;;;;;;;9.43;76.19;99908.34;6127250;23;900;-76
2022/10/11 03:34:25;;;;;;;;;;;;;;;9.35;76.49;99904.09;6127617;23;1944;-77
2022/10/11 03:36:51;;;;;;;;;;;;;;;9.36;76.42;99905.75;6153886;23;786;-77
2022/10/11 03:39:18;;;;;;;;;;;;;;;9.35;76.30;99901.41;6155795;23;865;-77
2022/10/11 03:41:45;;;;;;;;;;;;;;;9.33;76.40;99906.22;6154342;23;824;-77
2022/10/11 03:44:11;;;;;;;;;;;;;;;9.31;76.25;99910.97;6127180;23;1322;-77
2022/10/11 03:46:38;;;;;;;;;;;;;;;9.34;76.01;99915.91;6156400;23;806;-77
2022/10/11 03:49:04;;;;;;;;;;;;;;;9.35;76.20;99916.72;6153871;23;860;-77
2022/10/11 03:51:31;;;;;;;;;;;;;;;9.32;76.68;99932.25;6153774;23;884;-77
2022/10/11 03:53:57;;;;;;;;;;;;;;;9.30;76.44;99939.72;6154046;23;1877;-77
2022/10/11 03:56:24;;;;;;;;;;;;;;;9.32;76.27;99947.53;6154104;23;840;-77
2022/10/11 03:58:50;;;;;;;;;;;;;;;9.26;76.47;99941.19;6153557;23;825;-77
2022/10/11 04:01:17;;;;;;;;;;;;;;;9.25;76.66;99941.44;6154522;23;836;-77
2022/10/11 04:03:43;;;;;;;;;;;;;;;9.23;76.57;99935.47;6154038;23;857;-77
2022/10/11 04:06:10;;;;;;;;;;;;;;;9.26;76.54;99937.69;6127036;23;724;-76
2022/10/11 04:08:36;;;;;;;;;;;;;;;9.25;76.76;99947.63;6155267;23;782;-77
2022/10/11 04:11:03;;;;;;;;;;;;;;;9.27;76.57;99950.91;6155204;23;997;-77
2022/10/11 04:13:30;;;;;;;;;;;;;;;9.27;76.43;99950.09;6153104;23;1897;-77
2022/10/11 04:15:56;;;;;;;;;;;;;;;9.24;76.21;99943.31;6153362;23;817;-77
2022/10/11 04:18:25;;;;;;;;;;;;;;;9.23;76.64;99954.28;6153643;23;845;-77
2022/10/11 04:20:51;;;;;;;;;;;;;;;9.25;76.20;99944.13;6128347;23;1338;-77
2022/10/11 04:23:18;;;;;;;;;;;;;;;9.25;76.38;99950.31;6153414;23;1187;-78
2022/10/11 04:25:47;;;;;;;;;;;;;;;9.24;76.21;99953.25;6154944;23;824;-76
2022/10/11 04:28:13;;;;;;;;;;;;;;;9.27;75.83;99960.84;6127426;23;1347;-77
2022/10/11 04:30:40;;;;;;;;;;;;;;;9.22;76.07;99968.75;6154005;23;836;-77
2022/10/11 04:33:06;;;;;;;;;;;;;;;9.21;76.04;99967.13;6126447;23;1272;-77
2022/10/11 04:35:33;;;;;;;;;;;;;;;9.21;76.34;99967.13;6126245;23;1970;-77
2022/10/11 04:37:59;;;;;;;;;;;;;;;9.17;76.40;99965.91;6154766;23;821;-77
2022/10/11 04:40:26;;;;;;;;;;;;;;;9.17;76.25;99966.75;6128371;23;860;-77
2022/10/11 04:42:52;;;;;;;;;;;;;;;9.17;76.20;99968.59;6127544;23;1656;-77
2022/10/11 04:45:19;;;;;;;;;;;;;;;9.17;76.20;99971.28;6127539;23;1180;-77
2022/10/11 04:47:45;;;;;;;;;;;;;;;9.14;76.47;99972.56;6127415;23;2282;-77
2022/10/11 04:50:13;;;;;;;;;;;;;;;9.19;76.09;99974.59;6153116;23;845;-77
2022/10/11 04:52:39;;;;;;;;;;;;;;;9.23;75.76;99981.16;6127212;23;1367;-77
2022/10/11 04:55:06;;;;;;;;;;;;;;;9.15;76.35;99978.75;6152235;23;1972;-77
2022/10/11 04:57:32;;;;;;;;;;;;;;;9.13;76.25;99986.22;6127629;23;1453;-78
2022/10/11 04:59:59;;;;;;;;;;;;;;;9.13;76.48;99986.22;6153388;23;860;-77
2022/10/11 05:02:25;;;;;;;;;;;;;;;9.09;76.51;99988.56;6127836;23;1214;-77
2022/10/11 05:04:52;;;;;;;;;;;;;;;9.13;76.14;99991.59;6152855;23;809;-77
2022/10/11 05:07:18;;;;;;;;;;;;;;;9.15;76.04;99990.34;6153730;23;821;-77
2022/10/11 05:09:45;;;;;;;;;;;;;;;9.20;75.89;99992.34;6128430;23;1255;-77
2022/10/11 05:12:11;;;;;;;;;;;;;;;9.10;75.97;99988.31;6154893;23;801;-77
2022/10/11 05:14:38;;;;;;;;;;;;;;;9.09;75.98;99985.88;6151445;23;1917;-77
2022/10/11 05:17:04;;;;;;;;;;;;;;;9.10;76.20;99999.06;6152413;23;753;-77
2022/10/11 05:19:31;;;;;;;;;;;;;;;9.15;75.24;99997.56;6153660;23;1142;-77
2022/10/11 05:21:57;;;;;;;;;;;;;;;9.07;76.24;100004.06;6152987;23;1209;-77
2022/10/11 05:24:24;;;;;;;;;;;;;;;9.12;75.77;100004.22;6126212;23;750;-77
2022/10/11 05:26:51;;;;;;;;;;;;;;;9.06;75.80;100003.25;6129345;23;873;-77
2022/10/11 05:29:17;;;;;;;;;;;;;;;9.04;75.89;100012.56;6154646;23;853;-77
2022/10/11 05:31:44;;;;;;;;;;;;;;;9.04;75.99;100024.13;6157650;23;824;-77
2022/10/11 05:34:10;;;;;;;;;;;;;;;9.03;76.27;100013.59;6130853;23;1897;-77
2022/10/11 05:36:37;;;;;;;;;;;;;;;9.08;75.26;100014.56;6157023;23;817;-77
2022/10/11 05:39:03;;;;;;;;;;;;;;;9.08;75.59;100019.94;6155758;23;873;-77
2022/10/11 05:41:30;;;;;;;;;;;;;;;9.03;75.61;100013.59;6127290;23;907;-76
2022/10/11 05:43:56;;;;;;;;;;;;;;;9.07;75.60;100021.00;6152952;23;825;-77
2022/10/11 05:46:23;;;;;;;;;;;;;;;9.04;75.80;100028.69;6153431;23;1023;-77
2022/10/11 05:48:49;;;;;;;;;;;;;;;9.06;75.39;100031.97;6152576;23;1000;-77
2022/10/11 05:51:16;;;;;;;;;;;;;;;9.03;75.57;100041.31;6152973;23;805;-77
2022/10/11 05:53:42;;;;;;;;;;;;;;;9.00;76.10;100041.75;6126160;23;984;-77
2022/10/11 05:56:10;;;;;;;;;;;;;;;9.01;75.61;100031.81;6123527;23;1889;-77
2022/10/11 05:58:36;;;;;;;;;;;;;;;9.01;75.49;100040.69;6153011;23;825;-78
2022/10/11 06:01:03;;;;;;;;;;;;;;;9.02;75.53;100044.19;6153257;23;829;-77
2022/10/11 06:03:29;;;;;;;;;;;;;;;9.00;75.73;100047.13;6152840;23;971;-78
2022/10/11 06:05:56;;;;;;;;;;;;;;;8.98;75.84;100046.50;6151909;23;836;-77
2022/10/11 06:08:22;;;;;;;;;;;;;;;8.97;76.28;100036.81;6124333;23;1386;-77
2022/10/11 06:10:49;;;;;;;;;;;;;;;8.95;75.99;100049.63;6151604;23;1186;-77
2022/10/11 06:13:15;;;;;;;;;;;;;;;8.93;76.17;100051.72;6155353;23;774;-77
2022/10/11 06:15:42;;;;;;;;;;;;;;;8.96;76.01;100053.97;6126320;23;1953;-77
2022/10/11 06:18:08;;;;;;;;;;;;;;;8.95;76.10;100055.00;6154385;23;983;-77
2022/10/11 06:20:35;;;;;;;;;;;;;;;8.98;76.08;100065.31;6130849;23;1281;-77
2022/10/11 06:23:01;;;;;;;;;;;;;;;8.95;75.62;100070.31;6156429;23;1060;-77
2022/10/11 06:25:28;;;;;;;;;;;;;;;8.95;76.02;100081.88;6154980;23;753;-77
2022/10/11 06:27:55;;;;;;;;;;;;;;;8.93;76.05;100083.13;6153318;23;990;-78
2022/10/11 06:30:21;;;;;;;;;;;;;;;8.96;75.72;100098.81;6155879;23;963;-77
2022/10/11 06:32:48;;;;;;;;;;;;;;;8.95;75.91;100091.78;6155963;23;1018;-78
2022/10/11 06:35:14;;;;;;;;;;;;;;;8.94;75.62;100107.09;6155104;23;1897;-77
2022/10/11 06:37:41;;;;;;;;;;;;;;;8.96;75.73;100101.47;6155742;23;996;-77
2022/10/11 06:40:07;;;;;;;;;;;;;;;8.95;75.71;100107.91;6156679;23;856;-77
2022/10/11 06:42:34;;;;;;;;;;;;;;;8.92;75.92;100105.66;6130637;23;1436;-77
2022/10/11 06:45:00;;;;;;;;;;;;;;;8.95;75.62;100114.09;6128952;23;999;-77
2022/10/11 06:47:27;;;;;;;;;;;;;;;8.93;75.62;100140.34;6157646;23;813;-78
2022/10/11 06:49:53;;;;;;;;;;;;;;;8.95;75.28;100142.81;6156352;23;1010;-77
2022/10/11 06:52:20;;;;;;;;;;;;;;;8.98;75.69;100139.69;6128426;23;1401;-77
2022/10/11 06:54:47;;;;;;;;;;;;;;;8.93;75.96;100153.78;6153835;23;1935;-77
2022/10/11 06:57:13;;;;;;;;;;;;;;;8.95;75.46;100150.88;6154366;23;1019;-77
2022/10/11 06:59:40;;;;;;;;;;;;;;;8.94;75.63;100155.44;6155290;23;1015;-78
2022/10/11 07:02:07;;;;;;;;;;;;;;;8.90;75.80;100153.41;6155799;23;979;-77
2022/10/11 07:04:34;;;;;;;;;;;;;;;8.90;76.00;100150.72;6154814;23;979;-78
2022/10/11 07:07:00;;;;;;;;;;;;;;;8.86;75.79;100155.69;6154990;23;994;-78
2022/10/11 07:09:27;;;;;;;;;;;;;;;8.89;75.70;100160.63;6129166;23;1560;-77
2022/10/11 07:11:53;;;;;;;;;;;;;;;8.93;75.55;100167.19;6154737;23;844;-77
2022/10/11 07:14:20;;;;;;;;;;;;;;;8.90;75.52;100167.63;6129823;23;1889;-78
2022/10/11 07:16:46;;;;;;;;;;;;;;;8.89;75.08;100166.00;6155545;23;841;-77
2022/10/11 07:19:13;;;;;;;;;;;;;;;8.86;75.74;100178.00;6155752;23;995;-77
2022/10/11 07:21:39;;;;;;;;;;;;;;;8.89;75.80;100175.94;6154750;23;1279;-77
2022/10/11 07:24:06;;;;;;;;;;;;;;;8.96;75.40;100179.38;6156501;23;779;-77
2022/10/11 07:26:33;;;;;;;;;;;;;;;8.93;75.20;100194.06;6157375;23;963;-77
2022/10/11 07:28:59;;;;;;;;;;;;;;;8.91;75.65;100198.81;6155437;23;1007;-77
2022/10/11 07:31:26;;;;;;;;;;;;;;;8.89;75.59;100194.72;6154997;23;975;-77
2022/10/11 07:33:52;;;;;;;;;;;;;;;8.83;75.86;100204.47;6129012;23;1283;-78
2022/10/11 07:36:19;;;;;;;;;;;;;;;8.92;75.32;100213.09;6155811;23;1893;-77
2022/10/11 07:38:45;;;;;;;;;;;;;;;8.94;75.47;100213.69;6131389;23;1176;-78
2022/10/11 07:41:12;;;;;;;;;;;;;;;8.92;75.26;100224.66;6127524;23;956;-77
2022/10/11 07:43:39;;;;;;;;;;;;;;;8.87;75.31;100232.53;6128482;23;928;-77
2022/10/11 07:46:05;;;;;;;;;;;;;;;8.89;75.25;100235.00;6128141;23;1026;-77
2022/10/11 07:48:32;;;;;;;;;;;;;;;8.91;75.03;100236.41;6157792;23;812;-77
2022/10/11 07:50:58;;;;;;;;;;;;;;;8.88;75.37;100234.16;6131993;23;952;-77
2022/10/11 07:53:25;;;;;;;;;;;;;;;8.87;75.40;100238.72;6156704;23;1110;-77
2022/10/11 07:55:51;;;;;;;;;;;;;;;8.85;75.56;100235.44;6157379;23;1938;-78
2022/10/11 07:58:18;;;;;;;;;;;;;;;8.88;75.19;100236.84;6158348;23;843;-78
2022/10/11 08:00:44;;;;;;;;;;;;;;;8.88;74.94;100239.53;6129647;23;985;-78
2022/10/11 08:03:11;;;;;;;;;;;;;;;8.85;75.31;100237.28;6128856;23;963;-78
2022/10/11 08:05:37;;;;;;;;;;;;;;;8.82;75.72;100243.94;6154646;23;1155;-78
2022/10/11 08:08:04;;;;;;;;;;;;;;;8.90;75.43;100256.28;6154874;23;982;-77
2022/10/11 08:10:30;;;;;;;;;;;;;;;8.84;75.45;100249.91;6153991;23;1146;-78
2022/10/11 08:12:57;;;;;;;;;;;;;;;8.83;75.35;100256.31;6156800;23;838;-78
2022/10/11 08:15:24;;;;;;;;;;;;;;;8.82;75.29;100257.38;6154735;23;1897;-78
2022/10/11 08:17:50;;;;;;;;;;;;;;;8.81;75.73;100258.38;6158528;23;979;-77
2022/10/11 08:20:17;;;;;;;;;;;;;;;8.80;75.48;100266.66;6155253;23;824;-78
2022/10/11 08:22:43;;;;;;;;;;;;;;;8.88;75.00;100263.72;6124994;23;1286;-78
2022/10/11 08:25:10;;;;;;;;;;;;;;;8.83;75.62;100276.97;6125397;23;820;-77
2022/10/11 08:27:36;;;;;;;;;;;;;;;8.82;75.13;100278.84;6126896;23;845;-78
2022/10/11 08:30:03;;;;;;;;;;;;;;;8.82;75.34;100276.16;6123267;23;1245;-77
2022/10/11 08:32:29;;;;;;;;;;;;;;;8.85;74.99;100282.94;6127858;23;1006;-77
2022/10/11 08:34:56;;;;;;;;;;;;;;;8.82;75.78;100296.78;6127638;23;1938;-78
2022/10/11 08:37:23;;;;;;;;;;;;;;;8.85;75.44;100296.38;6127589;23;968;-78
2022/10/11 08:39:49;;;;;;;;;;;;;;;8.88;75.56;100293.25;6127918;23;1019;-78
2022/10/11 08:42:16;;;;;;;;;;;;;;;8.90;75.07;100296.56;6126713;23;816;-78
2022/10/11 08:44:42;;;;;;;;;;;;;;;8.91;74.38;100300.88;6126003;23;952;-78
2022/10/11 08:47:09;;;;;;;;;;;;;;;8.85;75.40;100294.53;6127974;23;1018;-78
2022/10/11 08:49:36;;;;;;;;;;;;;;;8.86;75.25;100295.34;6128294;23;1007;-78
2022/10/11 08:52:03;;;;;;;;;;;;;;;8.85;75.42;100296.38;6125443;23;963;-77
2022/10/11 08:54:30;;;;;;;;;;;;;;;8.94;75.03;100289.72;6126453;23;562;-77
2022/10/11 08:56:56;;;;;;;;;;;;;;;8.96;74.64;100286.81;6124158;23;1939;-78
2022/10/11 08:59:23;;;;;;;;;;;;;;;8.97;74.89;100283.94;6125350;23;853;-78
2022/10/11 09:01:49;;;;;;;;;;;;;;;8.96;75.06;100284.13;6125193;23;986;-78
2022/10/11 09:04:16;;;;;;;;;;;;;;;8.93;74.90;100290.75;6126036;23;852;-77
2022/10/11 09:06:42;;;;;;;;;;;;;;;8.97;74.45;100292.00;6121738;23;852;-78
2022/10/11 09:09:09;;;;;;;;;;;;;;;8.89;75.41;100304.84;6121309;23;805;-77
2022/10/11 09:11:35;;;;;;;;;;;;;;;8.93;75.27;100306.06;6125689;23;814;-78
2022/10/11 09:14:02;;;;;;;;;;;;;;;8.92;74.77;100307.91;6125816;23;995;-78
2022/10/11 09:16:28;;;;;;;;;;;;;;;8.91;75.19;100319.69;6124427;23;1901;-78
2022/10/11 09:18:55;;;;;;;;;;;;;;;8.91;74.79;100310.81;6126000;23;1029;-78
2022/10/11 09:21:22;;;;;;;;;;;;;;;8.93;74.90;100314.09;6124055;23;1230;-78
2022/10/11 09:23:48;;;;;;;;;;;;;;;8.89;74.96;100319.09;6155434;23;979;-77
2022/10/11 09:26:15;;;;;;;;;;;;;;;9.00;74.74;100325.63;6151083;23;809;-78
2022/10/11 09:28:41;;;;;;;;;;;;;;;8.92;74.80;100323.22;6122794;23;656;-77
2022/10/11 09:31:08;;;;;;;;;;;;;;;8.90;75.23;100334.16;6122287;23;1539;-78
2022/10/11 09:33:34;;;;;;;;;;;;;;;8.96;75.11;100337.84;6151598;23;818;-77
2022/10/11 09:36:01;;;;;;;;;;;;;;;8.98;74.72;100333.09;6128888;23;1901;-78
2022/10/11 09:38:27;;;;;;;;;;;;;;;8.91;75.37;100354.59;6154166;23;733;-78
2022/10/11 09:40:54;;;;;;;;;;;;;;;8.92;75.13;100352.75;6155243;23;1007;-77
2022/10/11 09:43:20;;;;;;;;;;;;;;;8.90;75.66;100352.97;6156103;23;963;-77
2022/10/11 09:45:47;;;;;;;;;;;;;;;8.94;74.94;100366.78;6154454;23;1026;-78
2022/10/11 09:48:13;;;;;;;;;;;;;;;8.91;75.44;100375.25;6155645;23;971;-77
2022/10/11 09:50:40;;;;;;;;;;;;;;;8.96;75.11;100372.78;6154413;23;1373;-78
2022/10/11 09:53:07;;;;;;;;;;;;;;;8.99;74.76;100375.84;6129972;23;1149;-77
2022/10/11 09:55:34;;;;;;;;;;;;;;;8.97;74.31;100375.25;6155014;23;1944;-77
2022/10/11 09:58:00;;;;;;;;;;;;;;;9.12;74.21;100372.28;6153531;23;999;-77
2022/10/11 10:00:26;;;;;;;;;;;;;;;9.14;73.73;100385.50;6154195;23;820;-77
2022/10/11 10:02:53;;;;;;;;;;;;;;;9.05;74.13;100377.69;6129846;23;1354;-77
2022/10/11 10:05:19;;;;;;;;;;;;;;;9.20;73.29;100382.78;6155326;23;983;-77
2022/10/11 10:07:46;;;;;;;;;;;;;;;9.23;72.67;100386.91;6156245;23;991;-77
2022/10/11 10:10:13;;;;;;;;;;;;;;;9.17;73.57;100387.75;6131605;23;727;-77
2022/10/11 10:12:39;;;;;;;;;;;;;;;9.21;73.34;100405.13;6154721;23;995;-77
2022/10/11 10:15:06;;;;;;;;;;;;;;;9.15;73.95;100405.94;6154201;23;1885;-77
2022/10/11 10:17:32;;;;;;;;;;;;;;;9.17;73.75;100410.06;6131007;23;951;-77
2022/10/11 10:19:59;;;;;;;;;;;;;;;9.13;74.02;100410.72;6154356;23;1173;-77
2022/10/11 10:22:26;;;;;;;;;;;;;;;9.29;73.13;100413.75;6156556;23;1309;-77
2022/10/11 10:24:52;;;;;;;;;;;;;;;9.31;73.34;100405.47;6154226;23;1023;-78
2022/10/11 10:27:19;;;;;;;;;;;;;;;9.17;72.85;100407.38;6156546;23;1214;-77
2022/10/11 10:29:46;;;;;;;;;;;;;;;9.37;72.65;100409.97;6155762;23;533;-78
2022/10/11 10:32:12;;;;;;;;;;;;;;;9.31;73.18;100413.53;6154163;23;940;-78
2022/10/11 10:34:39;;;;;;;;;;;;;;;9.22;73.55;100418.31;6154345;23;979;-78
2022/10/11 10:37:05;;;;;;;;;;;;;;;9.50;72.63;100426.06;6151866;23;1901;-78
2022/10/11 10:39:32;;;;;;;;;;;;;;;9.20;73.46;100431.13;6155491;23;971;-77
2022/10/11 10:41:59;;;;;;;;;;;;;;;9.08;74.17;100436.34;6151642;23;777;-77
2022/10/11 10:44:25;;;;;;;;;;;;;;;9.16;73.91;100421.88;6155588;23;999;-77
2022/10/11 10:46:52;;;;;;;;;;;;;;;9.29;72.39;100439.78;6154183;23;1007;-78
2022/10/11 10:49:18;;;;;;;;;;;;;;;9.32;73.16;100428.59;6154844;23;967;-78
2022/10/11 10:51:45;;;;;;;;;;;;;;;9.15;73.64;100438.19;6153066;23;1014;-77
2022/10/11 10:54:11;;;;;;;;;;;;;;;9.29;72.87;100440.63;6153035;23;1011;-77
2022/10/11 10:56:38;;;;;;;;;;;;;;;9.26;73.21;100432.16;6154726;23;1935;-78
2022/10/11 10:59:05;;;;;;;;;;;;;;;9.28;73.37;100435.47;6153132;23;941;-77
2022/10/11 11:01:32;;;;;;;;;;;;;;;9.21;73.92;100435.50;6154183;23;845;-77
2022/10/11 11:03:58;;;;;;;;;;;;;;;9.32;73.45;100436.66;6153654;23;1010;-77
2022/10/11 11:06:25;;;;;;;;;;;;;;;9.30;73.29;100442.28;6127776;23;2295;-78
2022/10/11 11:08:51;;;;;;;;;;;;;;;9.37;73.62;100454.84;6154693;23;1011;-77
2022/10/11 11:11:18;;;;;;;;;;;;;;;9.30;73.69;100453.03;6156011;23;972;-77
2022/10/11 11:13:44;;;;;;;;;;;;;;;9.26;73.80;100456.34;6157388;23;968;-77
2022/10/11 11:16:11;;;;;;;;;;;;;;;9.10;74.68;100457.66;6155041;23;1897;-77
2022/10/11 11:18:38;;;;;;;;;;;;;;;9.08;74.85;100462.41;6156588;23;799;-78
2022/10/11 11:21:04;;;;;;;;;;;;;;;9.26;74.01;100457.16;6156476;23;1289;-78
2022/10/11 11:23:31;;;;;;;;;;;;;;;9.28;73.50;100456.97;6156309;23;986;-78
2022/10/11 11:25:57;;;;;;;;;;;;;;;9.17;74.58;100466.50;6156840;23;1011;-78
2022/10/11 11:28:24;;;;;;;;;;;;;;;9.20;74.73;100466.06;6156248;23;1014;-77
2022/10/11 11:30:50;;;;;;;;;;;;;;;9.18;74.54;100470.84;6156093;23;1007;-78
2022/10/11 11:33:17;;;;;;;;;;;;;;;9.36;73.85;100464.78;6152890;23;1004;-77
2022/10/11 11:35:43;;;;;;;;;;;;;;;9.18;74.43;100472.72;6152180;23;1948;-78
2022/10/11 11:38:10;;;;;;;;;;;;;;;9.08;75.42;100479.34;6155693;23;995;-77
2022/10/11 11:40:37;;;;;;;;;;;;;;;9.25;74.68;100485.06;6156728;23;979;-77
2022/10/11 11:43:03;;;;;;;;;;;;;;;9.62;72.92;100487.19;6156757;23;1007;-78
2022/10/11 11:45:30;;;;;;;;;;;;;;;9.26;74.37;100489.41;6155622;23;975;-77
2022/10/11 11:47:56;;;;;;;;;;;;;;;9.55;73.31;100488.03;6155792;23;793;-77
2022/10/11 11:50:23;;;;;;;;;;;;;;;9.65;72.64;100492.97;6129824;23;952;-77
2022/10/11 11:52:53;;;;;;;;;;;;;;;9.50;73.63;100493.25;6157172;23;991;-77
2022/10/11 11:55:19;;;;;;;;;;;;;;;9.43;74.04;100505.88;6157906;23;1026;-77
2022/10/11 11:57:46;;;;;;;;;;;;;;;9.38;73.95;100504.88;6156069;23;1897;-77
2022/10/11 12:00:12;;;;;;;;;;;;;;;9.44;73.99;100514.78;6155860;23;975;-78
2022/10/11 12:02:39;;;;;;;;;;;;;;;9.60;73.58;100518.84;6122818;23;1007;-77
2022/10/11 12:05:05;;;;;;;;;;;;;;;9.42;74.19;100519.56;6123895;23;1514;-78
2022/10/11 12:07:32;;;;;;;;;;;;;;;9.55;73.91;100523.00;6127891;23;951;-77
2022/10/11 12:09:58;;;;;;;;;;;;;;;9.62;73.27;100519.44;6152938;23;983;-78
2022/10/11 12:12:25;;;;;;;;;;;;;;;9.90;72.07;100527.19;6154928;23;900;-78
2022/10/11 12:14:52;;;;;;;;;;;;;;;9.81;72.71;100533.84;6156028;23;959;-78
2022/10/11 12:17:18;;;;;;;;;;;;;;;9.71;72.76;100524.38;6126549;23;1938;-77
2022/10/11 12:19:45;;;;;;;;;;;;;;;9.92;72.11;100531.31;6149987;23;979;-77
2022/10/11 12:22:11;;;;;;;;;;;;;;;9.82;72.59;100532.81;6154761;23;1306;-78
2022/10/11 12:24:38;;;;;;;;;;;;;;;9.78;73.03;100538.63;6154818;23;955;-77
2022/10/11 12:27:04;;;;;;;;;;;;;;;9.66;73.10;100532.28;6129261;23;1007;-78
2022/10/11 12:29:31;;;;;;;;;;;;;;;9.80;72.44;100524.97;6156399;23;1023;-78
2022/10/11 12:31:58;;;;;;;;;;;;;;;10.10;71.63;100525.19;6153649;23;999;-77
2022/10/11 12:34:24;;;;;;;;;;;;;;;9.78;72.62;100527.84;6155449;23;1022;-77
2022/10/11 12:36:51;;;;;;;;;;;;;;;9.86;72.21;100534.03;6126853;23;1905;-77
2022/10/11 12:39:17;;;;;;;;;;;;;;;9.71;73.49;100528.94;6151777;23;983;-78
2022/10/11 12:41:44;;;;;;;;;;;;;;;9.75;72.95;100536.34;6154563;23;983;-77
2022/10/11 12:44:10;;;;;;;;;;;;;;;9.80;72.36;100540.28;6123971;23;1573;-77
2022/10/11 12:46:37;;;;;;;;;;;;;;;9.75;73.34;100551.69;6152482;23;875;-78
2022/10/11 12:49:04;;;;;;;;;;;;;;;9.74;72.70;100550.84;6149824;23;998;-78
2022/10/11 12:51:31;;;;;;;;;;;;;;;9.67;73.20;100555.41;6122662;23;1149;-78
2022/10/11 12:53:57;;;;;;;;;;;;;;;9.51;73.97;100550.53;6148555;23;967;-78
2022/10/11 12:56:24;;;;;;;;;;;;;;;9.71;73.17;100558.53;6150143;23;1893;-77
2022/10/11 12:58:51;;;;;;;;;;;;;;;9.61;73.77;100550.91;6122376;23;952;-78
2022/10/11 13:01:17;;;;;;;;;;;;;;;9.49;74.07;100553.44;6151904;23;968;-77
2022/10/11 13:03:44;;;;;;;;;;;;;;;9.48;74.68;100556.34;6149795;23;976;-78